Gloster, Louisiana
Current Conditions -  °F | °C
As of 1:56 AM on Friday 28 Nov 2014 (Local Time) from KSHV Reporting Station
Clear Clear  
Wind Chill: 39°   Ceiling: Unl
Heat Index: 39°   Visibility: 10mi
Dew Point: 33°   Wind: 3mph
Humidity: 79%   Direction: 140°SE
Pressure: 30.4"   Gusts: NA
Location:  32.19°N, 93.81°W
Report Text: KSHV 280756Z 14003KT 10SM CLR 04/01 A3040 RMK AO2 SLP293 T00390006
Loading
Personal Weather Stations






























Interactive Weather Map New forecast layout! Learn more

10-Day Weather Forecast

Advertisements
Track Severe Weather on mobile